Hovedside
METAR-TAF:

METAR-TAF

Lufthavner :

Rovaniemi lufthavn

Rovaniemi, Finland

breddegrad: 66-34N, lengdegrad: 025-50E, høyde over havet: 197 m

Gjeldene værobservasjon

Denne rapporten ble laget for 11 minutter siden, klokken 04:50 UTC
Vind 2 kt fra skiftende retning
Temperatur 5°C
Luftfuktighet 70%
Trykk 1025 hPa
Sikt 10 km eller mer
ingen skyer under 1500 m og ingen bygeskyer

METAR: EFRO 250450Z VRB02KT CAVOK 05/00 Q1025

Tid: 08:01 (05:01 UTC)

Varsel

Denne rapporten ble laget for 2 timer og 39 minutter siden, klokken 02:22 UTC
Varsel gyldig fra 25. klokken 03 UTC til 26. klokken 03 UTC
Vind 3 kt fra Vest
Sikt 10 km eller mer
ingen skyer under 1500 m og ingen bygeskyer

TAF: EFRO 250222Z 2503/2603 27003KT CAVOK

Værobservasjoner og værvarsel for over 4000 flyplasser (METAR- og TAF-rapporter).

Tilgjengelige stasjoner er representert av de røde og gule prikkene på kartet.

Hold musepekeren over prikken for å se navnet på stasjonen.

Klikk så for å se værobservasjoner og -varsler.

For å forandre kartet kan du klikke på den grønne knappen med svart kryss for å zoome inn, på den grønne knappen med strek for å zoome ut, eller på de grønne pilene for å se tilstøtende kart.


METAR-TAF: